sensor_id;sensor_type;location;lat;lon;timestamp;P1;durP1;ratioP1;P2;durP2;ratioP2
4810;SDS011;2419;51.276;6.472;2023-04-25T00:00:24;15.07;;;4.37;;
4810;SDS011;2419;51.276;6.472;2023-04-25T00:02:52;6.27;;;3.43;;
4810;SDS011;2419;51.276;6.472;2023-04-25T00:05:23;6.47;;;3.10;;
4810;SDS011;2419;51.276;6.472;2023-04-25T00:07:53;6.00;;;2.80;;
4810;SDS011;2419;51.276;6.472;2023-04-25T00:10:21;7.97;;;3.00;;
4810;SDS011;2419;51.276;6.472;2023-04-25T00:12:49;7.77;;;2.90;;
4810;SDS011;2419;51.276;6.472;2023-04-25T00:15:18;7.90;;;2.87;;
4810;SDS011;2419;51.276;6.472;2023-04-25T00:17:45;7.20;;;3.27;;
4810;SDS011;2419;51.276;6.472;2023-04-25T00:20:14;14.20;;;4.00;;
4810;SDS011;2419;51.276;6.472;2023-04-25T00:22:44;6.50;;;3.27;;
4810;SDS011;2419;51.276;6.472;2023-04-25T00:25:12;12.03;;;3.40;;
4810;SDS011;2419;51.276;6.472;2023-04-25T00:27:40;11.57;;;3.87;;
4810;SDS011;2419;51.276;6.472;2023-04-25T00:30:08;14.73;;;3.30;;
4810;SDS011;2419;51.276;6.472;2023-04-25T00:32:37;5.23;;;2.70;;
4810;SDS011;2419;51.276;6.472;2023-04-25T00:35:05;5.13;;;2.83;;
4810;SDS011;2419;51.276;6.472;2023-04-25T00:37:33;6.67;;;3.07;;
4810;SDS011;2419;51.276;6.472;2023-04-25T00:40:03;6.97;;;3.20;;
4810;SDS011;2419;51.276;6.472;2023-04-25T00:42:34;6.13;;;3.40;;
4810;SDS011;2419;51.276;6.472;2023-04-25T00:45:04;8.90;;;3.43;;
4810;SDS011;2419;51.276;6.472;2023-04-25T00:47:34;8.70;;;3.30;;
4810;SDS011;2419;51.276;6.472;2023-04-25T00:50:04;6.10;;;2.97;;
4810;SDS011;2419;51.276;6.472;2023-04-25T00:52:33;11.50;;;2.80;;
4810;SDS011;2419;51.276;6.472;2023-04-25T00:55:01;5.27;;;3.00;;
4810;SDS011;2419;51.276;6.472;2023-04-25T00:57:31;3.53;;;2.93;;
4810;SDS011;2419;51.276;6.472;2023-04-25T00:59:59;15.80;;;4.00;;
4810;SDS011;2419;51.276;6.472;2023-04-25T01:02:28;11.50;;;2.80;;
4810;SDS011;2419;51.276;6.472;2023-04-25T01:04:57;7.03;;;3.17;;
4810;SDS011;2419;51.276;6.472;2023-04-25T01:07:25;8.90;;;4.47;;
4810;SDS011;2419;51.276;6.472;2023-04-25T01:09:53;3.50;;;2.67;;
4810;SDS011;2419;51.276;6.472;2023-04-25T01:12:23;5.87;;;3.50;;
4810;SDS011;2419;51.276;6.472;2023-04-25T01:14:51;3.80;;;2.90;;
4810;SDS011;2419;51.276;6.472;2023-04-25T01:17:19;8.60;;;4.10;;
4810;SDS011;2419;51.276;6.472;2023-04-25T01:19:48;8.37;;;3.30;;
4810;SDS011;2419;51.276;6.472;2023-04-25T01:22:20;11.37;;;3.30;;
4810;SDS011;2419;51.276;6.472;2023-04-25T01:24:49;10.77;;;2.80;;
4810;SDS011;2419;51.276;6.472;2023-04-25T01:27:18;18.10;;;2.53;;
4810;SDS011;2419;51.276;6.472;2023-04-25T01:29:47;4.67;;;3.07;;
4810;SDS011;2419;51.276;6.472;2023-04-25T01:32:15;2.60;;;2.17;;
4810;SDS011;2419;51.276;6.472;2023-04-25T01:34:43;5.67;;;3.10;;
4810;SDS011;2419;51.276;6.472;2023-04-25T01:37:11;10.20;;;3.07;;
4810;SDS011;2419;51.276;6.472;2023-04-25T01:39:40;15.73;;;2.57;;
4810;SDS011;2419;51.276;6.472;2023-04-25T01:42:09;3.47;;;2.60;;
4810;SDS011;2419;51.276;6.472;2023-04-25T01:44:37;6.63;;;2.53;;
4810;SDS011;2419;51.276;6.472;2023-04-25T01:47:05;7.30;;;3.47;;
4810;SDS011;2419;51.276;6.472;2023-04-25T01:49:33;16.30;;;3.70;;
4810;SDS011;2419;51.276;6.472;2023-04-25T01:52:01;6.90;;;4.07;;
4810;SDS011;2419;51.276;6.472;2023-04-25T01:54:29;5.30;;;2.33;;
4810;SDS011;2419;51.276;6.472;2023-04-25T01:56:59;10.10;;;3.00;;
4810;SDS011;2419;51.276;6.472;2023-04-25T01:59:28;3.70;;;2.63;;
4810;SDS011;2419;51.276;6.472;2023-04-25T02:02:15;3.03;;;2.27;;
4810;SDS011;2419;51.276;6.472;2023-04-25T02:04:46;3.67;;;2.20;;
4810;SDS011;2419;51.276;6.472;2023-04-25T02:07:14;5.03;;;2.30;;
4810;SDS011;2419;51.276;6.472;2023-04-25T02:09:51;7.23;;;2.77;;
4810;SDS011;2419;51.276;6.472;2023-04-25T02:12:22;6.67;;;3.03;;
4810;SDS011;2419;51.276;6.472;2023-04-25T02:15:11;4.80;;;2.47;;
4810;SDS011;2419;51.276;6.472;2023-04-25T02:17:43;8.70;;;2.90;;
4810;SDS011;2419;51.276;6.472;2023-04-25T02:20:11;12.23;;;3.23;;
4810;SDS011;2419;51.276;6.472;2023-04-25T02:22:39;5.80;;;2.50;;
4810;SDS011;2419;51.276;6.472;2023-04-25T02:25:08;4.83;;;2.60;;
4810;SDS011;2419;51.276;6.472;2023-04-25T02:27:39;7.43;;;2.73;;
4810;SDS011;2419;51.276;6.472;2023-04-25T02:30:07;10.33;;;3.53;;
4810;SDS011;2419;51.276;6.472;2023-04-25T02:32:36;6.00;;;3.00;;
4810;SDS011;2419;51.276;6.472;2023-04-25T02:35:04;4.87;;;2.50;;
4810;SDS011;2419;51.276;6.472;2023-04-25T02:37:33;7.90;;;3.30;;
4810;SDS011;2419;51.276;6.472;2023-04-25T02:40:02;3.53;;;2.07;;
4810;SDS011;2419;51.276;6.472;2023-04-25T02:42:31;5.90;;;3.00;;
4810;SDS011;2419;51.276;6.472;2023-04-25T02:45:00;6.23;;;2.30;;
4810;SDS011;2419;51.276;6.472;2023-04-25T02:47:29;9.07;;;3.47;;
4810;SDS011;2419;51.276;6.472;2023-04-25T02:49:57;5.63;;;3.20;;
4810;SDS011;2419;51.276;6.472;2023-04-25T02:52:25;3.83;;;2.53;;
4810;SDS011;2419;51.276;6.472;2023-04-25T02:55:01;5.50;;;2.93;;
4810;SDS011;2419;51.276;6.472;2023-04-25T02:57:30;8.80;;;3.23;;
4810;SDS011;2419;51.276;6.472;2023-04-25T03:00:00;8.50;;;3.17;;
4810;SDS011;2419;51.276;6.472;2023-04-25T03:02:30;10.10;;;3.10;;
4810;SDS011;2419;51.276;6.472;2023-04-25T03:04:58;5.57;;;3.03;;
4810;SDS011;2419;51.276;6.472;2023-04-25T03:07:27;5.30;;;2.50;;
4810;SDS011;2419;51.276;6.472;2023-04-25T03:09:55;2.77;;;2.10;;
4810;SDS011;2419;51.276;6.472;2023-04-25T03:12:23;6.87;;;3.13;;
4810;SDS011;2419;51.276;6.472;2023-04-25T03:14:51;12.60;;;3.40;;
4810;SDS011;2419;51.276;6.472;2023-04-25T03:17:21;9.80;;;3.30;;
4810;SDS011;2419;51.276;6.472;2023-04-25T03:19:49;8.43;;;3.40;;
4810;SDS011;2419;51.276;6.472;2023-04-25T03:22:17;9.33;;;3.40;;
4810;SDS011;2419;51.276;6.472;2023-04-25T03:24:45;6.93;;;3.00;;
4810;SDS011;2419;51.276;6.472;2023-04-25T03:27:13;12.83;;;3.60;;
4810;SDS011;2419;51.276;6.472;2023-04-25T03:29:41;7.47;;;2.30;;
4810;SDS011;2419;51.276;6.472;2023-04-25T03:32:09;6.03;;;2.70;;
4810;SDS011;2419;51.276;6.472;2023-04-25T03:34:39;14.30;;;2.83;;
4810;SDS011;2419;51.276;6.472;2023-04-25T03:37:07;7.97;;;3.10;;
4810;SDS011;2419;51.276;6.472;2023-04-25T03:39:37;9.23;;;3.27;;
4810;SDS011;2419;51.276;6.472;2023-04-25T03:42:05;6.43;;;2.90;;
4810;SDS011;2419;51.276;6.472;2023-04-25T03:44:35;7.10;;;3.27;;
4810;SDS011;2419;51.276;6.472;2023-04-25T03:47:03;9.83;;;3.47;;
4810;SDS011;2419;51.276;6.472;2023-04-25T03:49:33;4.10;;;3.00;;
4810;SDS011;2419;51.276;6.472;2023-04-25T03:52:06;10.27;;;3.57;;
4810;SDS011;2419;51.276;6.472;2023-04-25T03:54:37;5.70;;;3.00;;
4810;SDS011;2419;51.276;6.472;2023-04-25T03:57:09;5.70;;;2.90;;
4810;SDS011;2419;51.276;6.472;2023-04-25T03:59:38;10.87;;;3.70;;
4810;SDS011;2419;51.276;6.472;2023-04-25T04:02:11;8.30;;;3.13;;
4810;SDS011;2419;51.276;6.472;2023-04-25T04:04:40;13.83;;;4.10;;
4810;SDS011;2419;51.276;6.472;2023-04-25T04:07:12;14.50;;;3.50;;
4810;SDS011;2419;51.276;6.472;2023-04-25T04:09:43;37.77;;;15.90;;
4810;SDS011;2419;51.276;6.472;2023-04-25T04:12:21;12.70;;;4.27;;
4810;SDS011;2419;51.276;6.472;2023-04-25T04:14:49;10.10;;;3.40;;
4810;SDS011;2419;51.276;6.472;2023-04-25T04:17:17;7.70;;;3.57;;
4810;SDS011;2419;51.276;6.472;2023-04-25T04:19:45;15.90;;;3.47;;
4810;SDS011;2419;51.276;6.472;2023-04-25T04:22:18;9.60;;;3.77;;
4810;SDS011;2419;51.276;6.472;2023-04-25T04:24:47;7.57;;;3.70;;
4810;SDS011;2419;51.276;6.472;2023-04-25T04:27:21;9.43;;;3.70;;
4810;SDS011;2419;51.276;6.472;2023-04-25T04:30:00;8.33;;;3.53;;
4810;SDS011;2419;51.276;6.472;2023-04-25T04:32:31;12.90;;;3.30;;
4810;SDS011;2419;51.276;6.472;2023-04-25T04:35:02;11.10;;;3.50;;
4810;SDS011;2419;51.276;6.472;2023-04-25T04:37:34;6.73;;;3.43;;
4810;SDS011;2419;51.276;6.472;2023-04-25T04:40:04;14.27;;;4.07;;
4810;SDS011;2419;51.276;6.472;2023-04-25T04:42:48;7.10;;;4.40;;
4810;SDS011;2419;51.276;6.472;2023-04-25T04:45:35;6.03;;;3.10;;
4810;SDS011;2419;51.276;6.472;2023-04-25T04:48:30;12.13;;;3.80;;
4810;SDS011;2419;51.276;6.472;2023-04-25T04:51:18;7.17;;;3.63;;
4810;SDS011;2419;51.276;6.472;2023-04-25T04:54:04;10.50;;;3.47;;
4810;SDS011;2419;51.276;6.472;2023-04-25T04:56:32;9.83;;;3.43;;
4810;SDS011;2419;51.276;6.472;2023-04-25T04:59:17;11.43;;;4.07;;
4810;SDS011;2419;51.276;6.472;2023-04-25T05:02:01;6.03;;;2.97;;
4810;SDS011;2419;51.276;6.472;2023-04-25T05:04:52;12.33;;;4.23;;
4810;SDS011;2419;51.276;6.472;2023-04-25T05:07:56;10.03;;;4.40;;
4810;SDS011;2419;51.276;6.472;2023-04-25T05:11:01;11.77;;;4.23;;
4810;SDS011;2419;51.276;6.472;2023-04-25T05:13:37;9.73;;;3.27;;
4810;SDS011;2419;51.276;6.472;2023-04-25T05:16:31;7.27;;;2.33;;
4810;SDS011;2419;51.276;6.472;2023-04-25T05:19:35;3.77;;;2.57;;
4810;SDS011;2419;51.276;6.472;2023-04-25T05:22:16;4.80;;;2.90;;
4810;SDS011;2419;51.276;6.472;2023-04-25T05:24:54;9.33;;;3.33;;
4810;SDS011;2419;51.276;6.472;2023-04-25T05:27:32;3.00;;;1.73;;
4810;SDS011;2419;51.276;6.472;2023-04-25T05:30:15;9.20;;;2.43;;
4810;SDS011;2419;51.276;6.472;2023-04-25T05:33:05;9.73;;;2.67;;
4810;SDS011;2419;51.276;6.472;2023-04-25T05:35:34;10.83;;;3.00;;
4810;SDS011;2419;51.276;6.472;2023-04-25T05:38:02;7.50;;;2.70;;
4810;SDS011;2419;51.276;6.472;2023-04-25T05:40:48;9.47;;;2.77;;
4810;SDS011;2419;51.276;6.472;2023-04-25T05:43:38;5.83;;;2.63;;
4810;SDS011;2419;51.276;6.472;2023-04-25T05:46:20;9.73;;;2.73;;
4810;SDS011;2419;51.276;6.472;2023-04-25T05:49:11;10.60;;;2.57;;
4810;SDS011;2419;51.276;6.472;2023-04-25T05:51:57;11.43;;;2.50;;
4810;SDS011;2419;51.276;6.472;2023-04-25T05:54:45;4.07;;;2.33;;
4810;SDS011;2419;51.276;6.472;2023-04-25T05:57:18;5.57;;;2.40;;
4810;SDS011;2419;51.276;6.472;2023-04-25T05:59:49;6.90;;;2.80;;
4810;SDS011;2419;51.276;6.472;2023-04-25T06:02:18;21.23;;;3.50;;
4810;SDS011;2419;51.276;6.472;2023-04-25T06:04:49;5.93;;;2.80;;
4810;SDS011;2419;51.276;6.472;2023-04-25T06:07:17;4.10;;;2.00;;
4810;SDS011;2419;51.276;6.472;2023-04-25T06:09:46;8.53;;;2.50;;
4810;SDS011;2419;51.276;6.472;2023-04-25T06:12:14;11.83;;;3.50;;
4810;SDS011;2419;51.276;6.472;2023-04-25T06:14:42;9.60;;;2.50;;
4810;SDS011;2419;51.276;6.472;2023-04-25T06:17:12;4.77;;;2.03;;
4810;SDS011;2419;51.276;6.472;2023-04-25T06:19:40;15.13;;;3.40;;
4810;SDS011;2419;51.276;6.472;2023-04-25T06:22:08;7.73;;;3.30;;
4810;SDS011;2419;51.276;6.472;2023-04-25T06:24:38;7.80;;;3.00;;
4810;SDS011;2419;51.276;6.472;2023-04-25T06:27:06;6.07;;;2.43;;
4810;SDS011;2419;51.276;6.472;2023-04-25T06:29:34;7.10;;;2.50;;
4810;SDS011;2419;51.276;6.472;2023-04-25T06:32:02;7.50;;;2.83;;
4810;SDS011;2419;51.276;6.472;2023-04-25T06:34:32;6.60;;;2.53;;
4810;SDS011;2419;51.276;6.472;2023-04-25T06:37:01;4.40;;;2.70;;
4810;SDS011;2419;51.276;6.472;2023-04-25T06:39:29;3.30;;;2.10;;
4810;SDS011;2419;51.276;6.472;2023-04-25T06:41:57;6.37;;;2.30;;
4810;SDS011;2419;51.276;6.472;2023-04-25T06:45:00;5.40;;;2.57;;
4810;SDS011;2419;51.276;6.472;2023-04-25T06:47:29;3.37;;;1.93;;
4810;SDS011;2419;51.276;6.472;2023-04-25T06:50:00;8.50;;;2.50;;
4810;SDS011;2419;51.276;6.472;2023-04-25T06:52:29;6.17;;;2.70;;
4810;SDS011;2419;51.276;6.472;2023-04-25T06:54:57;9.60;;;2.43;;
4810;SDS011;2419;51.276;6.472;2023-04-25T06:57:56;5.10;;;2.17;;
4810;SDS011;2419;51.276;6.472;2023-04-25T07:00:50;3.30;;;2.33;;
4810;SDS011;2419;51.276;6.472;2023-04-25T07:03:20;10.50;;;2.10;;
4810;SDS011;2419;51.276;6.472;2023-04-25T07:05:53;9.00;;;2.10;;
4810;SDS011;2419;51.276;6.472;2023-04-25T07:08:21;10.93;;;2.47;;
4810;SDS011;2419;51.276;6.472;2023-04-25T07:10:49;4.10;;;2.27;;
4810;SDS011;2419;51.276;6.472;2023-04-25T07:13:17;5.10;;;2.23;;
4810;SDS011;2419;51.276;6.472;2023-04-25T07:15:45;23.23;;;3.50;;
4810;SDS011;2419;51.276;6.472;2023-04-25T07:18:16;10.30;;;2.60;;
4810;SDS011;2419;51.276;6.472;2023-04-25T07:20:44;9.23;;;2.63;;
4810;SDS011;2419;51.276;6.472;2023-04-25T07:23:13;10.50;;;2.57;;
4810;SDS011;2419;51.276;6.472;2023-04-25T07:25:41;6.33;;;2.53;;
4810;SDS011;2419;51.276;6.472;2023-04-25T07:28:10;3.90;;;1.80;;
4810;SDS011;2419;51.276;6.472;2023-04-25T07:30:39;8.53;;;2.60;;
4810;SDS011;2419;51.276;6.472;2023-04-25T07:33:07;4.17;;;2.47;;
4810;SDS011;2419;51.276;6.472;2023-04-25T07:35:35;11.20;;;2.73;;
4810;SDS011;2419;51.276;6.472;2023-04-25T07:38:03;5.93;;;2.30;;
4810;SDS011;2419;51.276;6.472;2023-04-25T07:40:34;5.27;;;2.13;;
4810;SDS011;2419;51.276;6.472;2023-04-25T07:43:05;3.60;;;2.27;;
4810;SDS011;2419;51.276;6.472;2023-04-25T07:45:41;5.60;;;2.00;;
4810;SDS011;2419;51.276;6.472;2023-04-25T07:48:09;6.00;;;2.40;;
4810;SDS011;2419;51.276;6.472;2023-04-25T07:50:39;5.00;;;2.10;;
4810;SDS011;2419;51.276;6.472;2023-04-25T07:53:07;2.40;;;2.00;;
4810;SDS011;2419;51.276;6.472;2023-04-25T07:55:44;3.03;;;1.90;;
4810;SDS011;2419;51.276;6.472;2023-04-25T07:58:15;9.00;;;2.77;;
4810;SDS011;2419;51.276;6.472;2023-04-25T08:00:50;3.57;;;1.67;;
4810;SDS011;2419;51.276;6.472;2023-04-25T08:03:47;3.60;;;1.90;;
4810;SDS011;2419;51.276;6.472;2023-04-25T08:06:39;3.23;;;1.70;;
4810;SDS011;2419;51.276;6.472;2023-04-25T08:09:13;2.23;;;1.47;;
4810;SDS011;2419;51.276;6.472;2023-04-25T08:11:43;2.60;;;1.40;;
4810;SDS011;2419;51.276;6.472;2023-04-25T08:14:14;3.70;;;2.00;;
4810;SDS011;2419;51.276;6.472;2023-04-25T08:16:43;6.10;;;1.70;;
4810;SDS011;2419;51.276;6.472;2023-04-25T08:19:12;5.67;;;1.60;;
4810;SDS011;2419;51.276;6.472;2023-04-25T08:21:40;9.70;;;2.10;;
4810;SDS011;2419;51.276;6.472;2023-04-25T08:24:13;7.43;;;2.47;;
4810;SDS011;2419;51.276;6.472;2023-04-25T08:26:43;9.70;;;2.20;;
4810;SDS011;2419;51.276;6.472;2023-04-25T08:29:14;14.00;;;2.03;;
4810;SDS011;2419;51.276;6.472;2023-04-25T08:31:43;8.40;;;2.30;;
4810;SDS011;2419;51.276;6.472;2023-04-25T08:34:12;6.33;;;1.90;;
4810;SDS011;2419;51.276;6.472;2023-04-25T08:36:44;2.80;;;1.50;;
4810;SDS011;2419;51.276;6.472;2023-04-25T08:39:32;4.50;;;1.73;;
4810;SDS011;2419;51.276;6.472;2023-04-25T08:42:25;10.33;;;2.10;;
4810;SDS011;2419;51.276;6.472;2023-04-25T08:44:55;9.57;;;2.00;;
4810;SDS011;2419;51.276;6.472;2023-04-25T08:47:28;8.23;;;2.03;;
4810;SDS011;2419;51.276;6.472;2023-04-25T08:50:02;9.20;;;2.27;;
4810;SDS011;2419;51.276;6.472;2023-04-25T08:52:36;3.60;;;1.50;;
4810;SDS011;2419;51.276;6.472;2023-04-25T08:55:07;2.50;;;1.63;;
4810;SDS011;2419;51.276;6.472;2023-04-25T08:57:39;8.20;;;2.13;;
4810;SDS011;2419;51.276;6.472;2023-04-25T09:00:10;4.93;;;1.80;;
4810;SDS011;2419;51.276;6.472;2023-04-25T09:02:42;6.07;;;1.73;;
4810;SDS011;2419;51.276;6.472;2023-04-25T09:05:12;3.03;;;1.73;;
4810;SDS011;2419;51.276;6.472;2023-04-25T09:07:42;3.67;;;1.30;;
4810;SDS011;2419;51.276;6.472;2023-04-25T09:10:10;4.53;;;2.00;;
4810;SDS011;2419;51.276;6.472;2023-04-25T09:12:40;4.30;;;1.30;;
4810;SDS011;2419;51.276;6.472;2023-04-25T09:15:09;4.97;;;1.77;;
4810;SDS011;2419;51.276;6.472;2023-04-25T09:18:04;8.13;;;1.80;;
4810;SDS011;2419;51.276;6.472;2023-04-25T09:20:40;8.03;;;1.87;;
4810;SDS011;2419;51.276;6.472;2023-04-25T09:23:29;7.13;;;1.63;;
4810;SDS011;2419;51.276;6.472;2023-04-25T09:25:59;1.47;;;1.10;;
4810;SDS011;2419;51.276;6.472;2023-04-25T09:28:28;8.27;;;1.67;;
4810;SDS011;2419;51.276;6.472;2023-04-25T09:30:59;2.87;;;1.07;;
4810;SDS011;2419;51.276;6.472;2023-04-25T09:33:35;3.00;;;1.40;;
4810;SDS011;2419;51.276;6.472;2023-04-25T09:36:06;2.60;;;1.20;;
4810;SDS011;2419;51.276;6.472;2023-04-25T09:38:59;0.90;;;0.90;;
4810;SDS011;2419;51.276;6.472;2023-04-25T09:41:32;3.07;;;1.50;;
4810;SDS011;2419;51.276;6.472;2023-04-25T09:44:06;3.93;;;1.30;;
4810;SDS011;2419;51.276;6.472;2023-04-25T09:46:36;1.63;;;1.10;;
4810;SDS011;2419;51.276;6.472;2023-04-25T09:49:19;4.93;;;1.40;;
4810;SDS011;2419;51.276;6.472;2023-04-25T09:52:15;3.03;;;1.17;;
4810;SDS011;2419;51.276;6.472;2023-04-25T09:54:54;5.20;;;1.23;;
4810;SDS011;2419;51.276;6.472;2023-04-25T09:57:28;5.13;;;1.57;;
4810;SDS011;2419;51.276;6.472;2023-04-25T09:59:59;2.43;;;1.50;;
4810;SDS011;2419;51.276;6.472;2023-04-25T10:02:39;3.27;;;1.30;;
4810;SDS011;2419;51.276;6.472;2023-04-25T10:05:20;2.17;;;1.27;;
4810;SDS011;2419;51.276;6.472;2023-04-25T10:07:49;5.47;;;1.47;;
4810;SDS011;2419;51.276;6.472;2023-04-25T10:10:17;2.50;;;1.20;;
4810;SDS011;2419;51.276;6.472;2023-04-25T10:12:46;1.63;;;1.10;;
4810;SDS011;2419;51.276;6.472;2023-04-25T10:15:16;7.80;;;2.13;;
4810;SDS011;2419;51.276;6.472;2023-04-25T10:17:44;3.37;;;1.50;;
4810;SDS011;2419;51.276;6.472;2023-04-25T10:20:12;4.77;;;1.20;;
4810;SDS011;2419;51.276;6.472;2023-04-25T10:22:42;4.30;;;1.30;;
4810;SDS011;2419;51.276;6.472;2023-04-25T10:25:11;5.13;;;1.40;;
4810;SDS011;2419;51.276;6.472;2023-04-25T10:27:41;2.23;;;1.50;;
4810;SDS011;2419;51.276;6.472;2023-04-25T10:30:09;3.37;;;1.57;;
4810;SDS011;2419;51.276;6.472;2023-04-25T10:32:43;3.87;;;1.73;;
4810;SDS011;2419;51.276;6.472;2023-04-25T10:35:13;3.30;;;1.50;;
4810;SDS011;2419;51.276;6.472;2023-04-25T10:38:02;5.93;;;1.60;;
4810;SDS011;2419;51.276;6.472;2023-04-25T10:40:32;2.57;;;1.40;;
4810;SDS011;2419;51.276;6.472;2023-04-25T10:46:12;3.10;;;1.43;;
4810;SDS011;2419;51.276;6.472;2023-04-25T10:48:45;2.47;;;1.53;;
4810;SDS011;2419;51.276;6.472;2023-04-25T10:51:19;8.07;;;1.60;;
4810;SDS011;2419;51.276;6.472;2023-04-25T10:53:58;2.03;;;1.30;;
4810;SDS011;2419;51.276;6.472;2023-04-25T10:56:28;2.80;;;1.50;;
4810;SDS011;2419;51.276;6.472;2023-04-25T10:59:04;2.70;;;1.50;;
4810;SDS011;2419;51.276;6.472;2023-04-25T11:01:36;1.90;;;1.27;;
4810;SDS011;2419;51.276;6.472;2023-04-25T11:04:07;1.73;;;1.00;;
4810;SDS011;2419;51.276;6.472;2023-04-25T11:06:53;3.53;;;1.73;;
4810;SDS011;2419;51.276;6.472;2023-04-25T11:09:32;3.70;;;1.30;;
4810;SDS011;2419;51.276;6.472;2023-04-25T11:12:01;3.33;;;1.50;;
4810;SDS011;2419;51.276;6.472;2023-04-25T11:14:29;1.97;;;1.50;;
4810;SDS011;2419;51.276;6.472;2023-04-25T11:16:57;2.87;;;1.30;;
4810;SDS011;2419;51.276;6.472;2023-04-25T11:19:28;1.10;;;1.00;;
4810;SDS011;2419;51.276;6.472;2023-04-25T11:21:56;3.00;;;1.40;;
4810;SDS011;2419;51.276;6.472;2023-04-25T11:24:26;2.03;;;1.20;;
4810;SDS011;2419;51.276;6.472;2023-04-25T11:26:54;2.40;;;1.67;;
4810;SDS011;2419;51.276;6.472;2023-04-25T11:29:22;5.80;;;1.70;;
4810;SDS011;2419;51.276;6.472;2023-04-25T11:31:51;4.50;;;1.27;;
4810;SDS011;2419;51.276;6.472;2023-04-25T11:34:19;3.63;;;1.57;;
4810;SDS011;2419;51.276;6.472;2023-04-25T11:36:49;14.10;;;5.77;;
4810;SDS011;2419;51.276;6.472;2023-04-25T11:39:18;4.53;;;1.53;;
4810;SDS011;2419;51.276;6.472;2023-04-25T11:41:46;3.33;;;1.37;;
4810;SDS011;2419;51.276;6.472;2023-04-25T11:44:15;1.83;;;1.20;;
4810;SDS011;2419;51.276;6.472;2023-04-25T11:46:44;5.63;;;1.67;;
4810;SDS011;2419;51.276;6.472;2023-04-25T11:49:13;4.60;;;1.30;;
4810;SDS011;2419;51.276;6.472;2023-04-25T11:51:41;5.53;;;1.47;;
4810;SDS011;2419;51.276;6.472;2023-04-25T11:54:12;4.20;;;1.27;;
4810;SDS011;2419;51.276;6.472;2023-04-25T11:56:41;3.30;;;1.37;;
4810;SDS011;2419;51.276;6.472;2023-04-25T11:59:09;1.80;;;1.40;;
4810;SDS011;2419;51.276;6.472;2023-04-25T12:01:39;5.93;;;1.90;;
4810;SDS011;2419;51.276;6.472;2023-04-25T12:04:11;1.17;;;1.07;;
4810;SDS011;2419;51.276;6.472;2023-04-25T12:06:41;1.53;;;1.30;;
4810;SDS011;2419;51.276;6.472;2023-04-25T12:09:14;1.73;;;1.10;;
4810;SDS011;2419;51.276;6.472;2023-04-25T12:11:44;7.10;;;1.57;;
4810;SDS011;2419;51.276;6.472;2023-04-25T12:14:20;5.53;;;1.20;;
4810;SDS011;2419;51.276;6.472;2023-04-25T12:16:50;3.97;;;1.53;;
4810;SDS011;2419;51.276;6.472;2023-04-25T12:19:20;1.53;;;1.00;;
4810;SDS011;2419;51.276;6.472;2023-04-25T12:21:50;2.40;;;1.23;;
4810;SDS011;2419;51.276;6.472;2023-04-25T12:24:26;1.30;;;0.80;;
4810;SDS011;2419;51.276;6.472;2023-04-25T12:26:58;0.87;;;0.87;;
4810;SDS011;2419;51.276;6.472;2023-04-25T12:29:29;1.60;;;1.20;;
4810;SDS011;2419;51.276;6.472;2023-04-25T12:32:13;2.40;;;1.10;;
4810;SDS011;2419;51.276;6.472;2023-04-25T12:34:41;1.63;;;1.10;;
4810;SDS011;2419;51.276;6.472;2023-04-25T12:37:10;1.83;;;1.00;;
4810;SDS011;2419;51.276;6.472;2023-04-25T12:39:43;2.50;;;1.10;;
4810;SDS011;2419;51.276;6.472;2023-04-25T12:42:14;2.90;;;0.90;;
4810;SDS011;2419;51.276;6.472;2023-04-25T12:44:50;1.30;;;1.20;;
4810;SDS011;2419;51.276;6.472;2023-04-25T12:47:28;3.73;;;1.23;;
4810;SDS011;2419;51.276;6.472;2023-04-25T12:49:56;2.30;;;1.17;;
4810;SDS011;2419;51.276;6.472;2023-04-25T12:52:24;3.03;;;0.80;;
4810;SDS011;2419;51.276;6.472;2023-04-25T12:54:53;1.67;;;0.90;;
4810;SDS011;2419;51.276;6.472;2023-04-25T12:57:21;2.50;;;0.90;;
4810;SDS011;2419;51.276;6.472;2023-04-25T12:59:49;1.30;;;0.93;;
4810;SDS011;2419;51.276;6.472;2023-04-25T13:02:18;7.20;;;1.10;;
4810;SDS011;2419;51.276;6.472;2023-04-25T13:04:46;1.20;;;0.90;;
4810;SDS011;2419;51.276;6.472;2023-04-25T13:07:14;1.13;;;0.80;;
4810;SDS011;2419;51.276;6.472;2023-04-25T13:09:42;2.13;;;0.97;;
4810;SDS011;2419;51.276;6.472;2023-04-25T13:12:12;1.90;;;1.10;;
4810;SDS011;2419;51.276;6.472;2023-04-25T13:14:40;1.97;;;1.20;;
4810;SDS011;2419;51.276;6.472;2023-04-25T13:17:08;2.10;;;0.93;;
4810;SDS011;2419;51.276;6.472;2023-04-25T13:19:36;1.63;;;1.10;;
4810;SDS011;2419;51.276;6.472;2023-04-25T13:22:05;1.20;;;0.87;;
4810;SDS011;2419;51.276;6.472;2023-04-25T13:24:33;3.50;;;1.47;;
4810;SDS011;2419;51.276;6.472;2023-04-25T13:27:01;1.30;;;1.17;;
4810;SDS011;2419;51.276;6.472;2023-04-25T13:29:33;3.43;;;1.43;;
4810;SDS011;2419;51.276;6.472;2023-04-25T13:32:01;3.80;;;1.20;;
4810;SDS011;2419;51.276;6.472;2023-04-25T13:34:30;1.90;;;1.43;;
4810;SDS011;2419;51.276;6.472;2023-04-25T13:36:58;2.00;;;1.33;;
4810;SDS011;2419;51.276;6.472;2023-04-25T13:39:26;2.43;;;1.73;;
4810;SDS011;2419;51.276;6.472;2023-04-25T13:41:54;5.47;;;1.10;;
4810;SDS011;2419;51.276;6.472;2023-04-25T13:44:22;9.80;;;1.60;;
4810;SDS011;2419;51.276;6.472;2023-04-25T13:46:52;4.03;;;1.30;;
4810;SDS011;2419;51.276;6.472;2023-04-25T13:49:20;3.10;;;1.00;;
4810;SDS011;2419;51.276;6.472;2023-04-25T13:51:49;3.27;;;1.30;;
4810;SDS011;2419;51.276;6.472;2023-04-25T13:54:17;1.70;;;1.40;;
4810;SDS011;2419;51.276;6.472;2023-04-25T13:56:45;7.50;;;1.30;;
4810;SDS011;2419;51.276;6.472;2023-04-25T13:59:13;1.27;;;1.17;;
4810;SDS011;2419;51.276;6.472;2023-04-25T14:01:41;1.93;;;1.30;;
4810;SDS011;2419;51.276;6.472;2023-04-25T14:04:10;3.13;;;1.67;;
4810;SDS011;2419;51.276;6.472;2023-04-25T14:06:38;2.90;;;1.53;;
4810;SDS011;2419;51.276;6.472;2023-04-25T14:09:07;3.33;;;1.87;;
4810;SDS011;2419;51.276;6.472;2023-04-25T14:11:36;2.13;;;1.40;;
4810;SDS011;2419;51.276;6.472;2023-04-25T14:14:04;1.13;;;0.90;;
4810;SDS011;2419;51.276;6.472;2023-04-25T14:16:32;2.80;;;1.23;;
4810;SDS011;2419;51.276;6.472;2023-04-25T14:19:01;3.70;;;1.50;;
4810;SDS011;2419;51.276;6.472;2023-04-25T14:21:30;6.60;;;1.40;;
4810;SDS011;2419;51.276;6.472;2023-04-25T14:23:59;3.00;;;1.60;;
4810;SDS011;2419;51.276;6.472;2023-04-25T14:26:27;2.23;;;1.10;;
4810;SDS011;2419;51.276;6.472;2023-04-25T14:28:56;4.57;;;1.83;;
4810;SDS011;2419;51.276;6.472;2023-04-25T14:31:24;6.27;;;1.50;;
4810;SDS011;2419;51.276;6.472;2023-04-25T14:33:52;1.43;;;1.10;;
4810;SDS011;2419;51.276;6.472;2023-04-25T14:36:24;2.63;;;1.37;;
4810;SDS011;2419;51.276;6.472;2023-04-25T14:38:54;5.43;;;1.63;;
4810;SDS011;2419;51.276;6.472;2023-04-25T14:41:22;1.73;;;1.10;;
4810;SDS011;2419;51.276;6.472;2023-04-25T14:43:50;5.00;;;2.23;;
4810;SDS011;2419;51.276;6.472;2023-04-25T14:46:19;2.03;;;1.40;;
4810;SDS011;2419;51.276;6.472;2023-04-25T14:48:48;1.70;;;1.00;;
4810;SDS011;2419;51.276;6.472;2023-04-25T14:51:19;1.00;;;0.80;;
4810;SDS011;2419;51.276;6.472;2023-04-25T14:53:47;1.30;;;0.83;;
4810;SDS011;2419;51.276;6.472;2023-04-25T14:56:16;1.33;;;1.17;;
4810;SDS011;2419;51.276;6.472;2023-04-25T14:58:44;2.87;;;1.10;;
4810;SDS011;2419;51.276;6.472;2023-04-25T15:01:13;2.90;;;1.13;;
4810;SDS011;2419;51.276;6.472;2023-04-25T15:03:41;4.97;;;1.30;;
4810;SDS011;2419;51.276;6.472;2023-04-25T15:06:10;3.80;;;1.03;;
4810;SDS011;2419;51.276;6.472;2023-04-25T15:08:37;3.00;;;1.37;;
4810;SDS011;2419;51.276;6.472;2023-04-25T15:11:09;3.03;;;1.17;;
4810;SDS011;2419;51.276;6.472;2023-04-25T15:13:39;3.60;;;1.47;;
4810;SDS011;2419;51.276;6.472;2023-04-25T15:16:07;2.63;;;1.23;;
4810;SDS011;2419;51.276;6.472;2023-04-25T15:18:36;1.90;;;1.40;;
4810;SDS011;2419;51.276;6.472;2023-04-25T15:21:04;3.10;;;1.40;;
4810;SDS011;2419;51.276;6.472;2023-04-25T15:23:33;1.50;;;0.93;;
4810;SDS011;2419;51.276;6.472;2023-04-25T15:26:01;3.90;;;0.90;;
4810;SDS011;2419;51.276;6.472;2023-04-25T15:28:29;3.50;;;1.47;;
4810;SDS011;2419;51.276;6.472;2023-04-25T15:30:59;2.63;;;1.40;;
4810;SDS011;2419;51.276;6.472;2023-04-25T15:33:27;1.43;;;1.10;;
4810;SDS011;2419;51.276;6.472;2023-04-25T15:35:55;2.90;;;1.40;;
4810;SDS011;2419;51.276;6.472;2023-04-25T15:38:24;1.37;;;1.13;;
4810;SDS011;2419;51.276;6.472;2023-04-25T15:40:52;1.33;;;0.87;;
4810;SDS011;2419;51.276;6.472;2023-04-25T15:43:20;5.20;;;1.00;;